sensor_id;sensor_type;location;lat;lon;timestamp;P1;durP1;ratioP1;P2;durP2;ratioP2
22129;SDS011;11231;50.746;4.272;2023-07-13T00:00:25;12.53;;;2.10;;
22129;SDS011;11231;50.746;4.272;2023-07-13T00:02:51;10.17;;;2.00;;
22129;SDS011;11231;50.746;4.272;2023-07-13T00:05:21;8.57;;;1.97;;
22129;SDS011;11231;50.746;4.272;2023-07-13T00:07:48;14.13;;;2.50;;
22129;SDS011;11231;50.746;4.272;2023-07-13T00:10:15;11.10;;;2.00;;
22129;SDS011;11231;50.746;4.272;2023-07-13T00:12:41;9.50;;;1.80;;
22129;SDS011;11231;50.746;4.272;2023-07-13T00:15:12;10.17;;;1.83;;
22129;SDS011;11231;50.746;4.272;2023-07-13T00:17:41;14.37;;;2.20;;
22129;SDS011;11231;50.746;4.272;2023-07-13T00:20:10;14.23;;;2.13;;
22129;SDS011;11231;50.746;4.272;2023-07-13T00:22:36;9.30;;;2.00;;
22129;SDS011;11231;50.746;4.272;2023-07-13T00:25:02;11.63;;;2.27;;
22129;SDS011;11231;50.746;4.272;2023-07-13T00:27:28;11.00;;;2.57;;
22129;SDS011;11231;50.746;4.272;2023-07-13T00:29:57;13.37;;;2.37;;
22129;SDS011;11231;50.746;4.272;2023-07-13T00:32:24;9.97;;;2.00;;
22129;SDS011;11231;50.746;4.272;2023-07-13T00:34:52;11.33;;;2.13;;
22129;SDS011;11231;50.746;4.272;2023-07-13T00:37:18;13.00;;;2.40;;
22129;SDS011;11231;50.746;4.272;2023-07-13T00:39:44;9.37;;;2.07;;
22129;SDS011;11231;50.746;4.272;2023-07-13T00:42:10;9.53;;;2.17;;
22129;SDS011;11231;50.746;4.272;2023-07-13T00:44:36;9.37;;;2.37;;
22129;SDS011;11231;50.746;4.272;2023-07-13T00:47:01;11.60;;;2.43;;
22129;SDS011;11231;50.746;4.272;2023-07-13T00:49:28;11.27;;;2.17;;
22129;SDS011;11231;50.746;4.272;2023-07-13T00:51:57;13.27;;;2.80;;
22129;SDS011;11231;50.746;4.272;2023-07-13T00:54:35;14.70;;;2.70;;
22129;SDS011;11231;50.746;4.272;2023-07-13T00:57:06;10.50;;;2.20;;
22129;SDS011;11231;50.746;4.272;2023-07-13T00:59:34;12.60;;;2.17;;
22129;SDS011;11231;50.746;4.272;2023-07-13T01:02:03;8.23;;;2.30;;
22129;SDS011;11231;50.746;4.272;2023-07-13T01:04:29;11.73;;;2.30;;
22129;SDS011;11231;50.746;4.272;2023-07-13T01:06:55;10.03;;;2.30;;
22129;SDS011;11231;50.746;4.272;2023-07-13T01:09:22;7.80;;;1.90;;
22129;SDS011;11231;50.746;4.272;2023-07-13T01:11:48;9.07;;;2.10;;
22129;SDS011;11231;50.746;4.272;2023-07-13T01:14:14;13.40;;;2.27;;
22129;SDS011;11231;50.746;4.272;2023-07-13T01:16:42;10.17;;;2.13;;
22129;SDS011;11231;50.746;4.272;2023-07-13T01:22:01;12.07;;;2.30;;
22129;SDS011;11231;50.746;4.272;2023-07-13T01:24:34;16.53;;;2.40;;
22129;SDS011;11231;50.746;4.272;2023-07-13T01:27:01;17.53;;;2.67;;
22129;SDS011;11231;50.746;4.272;2023-07-13T01:29:29;11.97;;;2.27;;
22129;SDS011;11231;50.746;4.272;2023-07-13T01:31:56;11.70;;;2.90;;
22129;SDS011;11231;50.746;4.272;2023-07-13T01:34:24;12.10;;;2.53;;
22129;SDS011;11231;50.746;4.272;2023-07-13T01:36:50;10.47;;;2.80;;
22129;SDS011;11231;50.746;4.272;2023-07-13T01:39:20;11.70;;;2.53;;
22129;SDS011;11231;50.746;4.272;2023-07-13T01:41:47;13.83;;;2.90;;
22129;SDS011;11231;50.746;4.272;2023-07-13T01:44:13;14.80;;;2.90;;
22129;SDS011;11231;50.746;4.272;2023-07-13T01:46:39;11.60;;;2.63;;
22129;SDS011;11231;50.746;4.272;2023-07-13T01:49:04;11.83;;;2.63;;
22129;SDS011;11231;50.746;4.272;2023-07-13T01:51:30;17.00;;;2.80;;
22129;SDS011;11231;50.746;4.272;2023-07-13T01:53:56;15.23;;;2.90;;
22129;SDS011;11231;50.746;4.272;2023-07-13T01:56:22;14.90;;;2.50;;
22129;SDS011;11231;50.746;4.272;2023-07-13T01:58:48;11.43;;;2.53;;
22129;SDS011;11231;50.746;4.272;2023-07-13T02:01:15;10.97;;;2.67;;
22129;SDS011;11231;50.746;4.272;2023-07-13T02:03:41;14.13;;;3.00;;
22129;SDS011;11231;50.746;4.272;2023-07-13T02:06:06;12.60;;;2.50;;
22129;SDS011;11231;50.746;4.272;2023-07-13T02:08:32;15.70;;;2.57;;
22129;SDS011;11231;50.746;4.272;2023-07-13T02:10:59;15.60;;;2.93;;
22129;SDS011;11231;50.746;4.272;2023-07-13T02:13:24;11.57;;;2.27;;
22129;SDS011;11231;50.746;4.272;2023-07-13T02:15:51;10.50;;;2.47;;
22129;SDS011;11231;50.746;4.272;2023-07-13T02:18:16;10.17;;;2.43;;
22129;SDS011;11231;50.746;4.272;2023-07-13T02:20:43;13.50;;;3.17;;
22129;SDS011;11231;50.746;4.272;2023-07-13T02:23:09;15.47;;;3.27;;
22129;SDS011;11231;50.746;4.272;2023-07-13T02:25:36;16.73;;;3.07;;
22129;SDS011;11231;50.746;4.272;2023-07-13T02:28:02;12.67;;;2.90;;
22129;SDS011;11231;50.746;4.272;2023-07-13T02:30:28;14.97;;;3.00;;
22129;SDS011;11231;50.746;4.272;2023-07-13T02:32:56;15.80;;;2.70;;
22129;SDS011;11231;50.746;4.272;2023-07-13T02:35:22;14.57;;;2.90;;
22129;SDS011;11231;50.746;4.272;2023-07-13T02:37:48;13.67;;;3.20;;
22129;SDS011;11231;50.746;4.272;2023-07-13T02:40:14;10.07;;;2.77;;
22129;SDS011;11231;50.746;4.272;2023-07-13T02:42:40;11.10;;;2.97;;
22129;SDS011;11231;50.746;4.272;2023-07-13T02:45:06;10.30;;;2.90;;
22129;SDS011;11231;50.746;4.272;2023-07-13T02:47:34;12.73;;;2.90;;
22129;SDS011;11231;50.746;4.272;2023-07-13T02:50:00;12.40;;;2.43;;
22129;SDS011;11231;50.746;4.272;2023-07-13T02:52:26;13.93;;;3.00;;
22129;SDS011;11231;50.746;4.272;2023-07-13T02:54:52;14.53;;;2.57;;
22129;SDS011;11231;50.746;4.272;2023-07-13T02:57:18;16.00;;;2.67;;
22129;SDS011;11231;50.746;4.272;2023-07-13T02:59:43;13.57;;;3.10;;
22129;SDS011;11231;50.746;4.272;2023-07-13T03:02:09;13.93;;;3.50;;
22129;SDS011;11231;50.746;4.272;2023-07-13T03:04:36;13.10;;;2.80;;
22129;SDS011;11231;50.746;4.272;2023-07-13T03:07:03;14.17;;;2.87;;
22129;SDS011;11231;50.746;4.272;2023-07-13T03:09:34;14.70;;;3.10;;
22129;SDS011;11231;50.746;4.272;2023-07-13T03:12:01;23.33;;;3.20;;
22129;SDS011;11231;50.746;4.272;2023-07-13T03:14:30;12.93;;;2.90;;
22129;SDS011;11231;50.746;4.272;2023-07-13T03:16:56;17.83;;;3.07;;
22129;SDS011;11231;50.746;4.272;2023-07-13T03:19:25;14.00;;;3.17;;
22129;SDS011;11231;50.746;4.272;2023-07-13T03:21:52;14.20;;;3.00;;
22129;SDS011;11231;50.746;4.272;2023-07-13T03:24:17;19.70;;;3.53;;
22129;SDS011;11231;50.746;4.272;2023-07-13T03:26:43;13.93;;;3.60;;
22129;SDS011;11231;50.746;4.272;2023-07-13T03:29:09;12.57;;;2.87;;
22129;SDS011;11231;50.746;4.272;2023-07-13T03:31:35;13.67;;;3.37;;
22129;SDS011;11231;50.746;4.272;2023-07-13T03:34:02;18.90;;;3.53;;
22129;SDS011;11231;50.746;4.272;2023-07-13T03:36:29;15.43;;;3.10;;
22129;SDS011;11231;50.746;4.272;2023-07-13T03:39:01;18.23;;;3.10;;
22129;SDS011;11231;50.746;4.272;2023-07-13T03:41:41;15.10;;;3.40;;
22129;SDS011;11231;50.746;4.272;2023-07-13T03:44:07;17.70;;;3.40;;
22129;SDS011;11231;50.746;4.272;2023-07-13T03:46:33;14.53;;;3.63;;
22129;SDS011;11231;50.746;4.272;2023-07-13T03:48:59;16.93;;;3.20;;
22129;SDS011;11231;50.746;4.272;2023-07-13T03:51:25;16.60;;;3.43;;
22129;SDS011;11231;50.746;4.272;2023-07-13T03:53:51;19.53;;;3.77;;
22129;SDS011;11231;50.746;4.272;2023-07-13T03:56:18;17.13;;;3.50;;
22129;SDS011;11231;50.746;4.272;2023-07-13T03:58:46;15.13;;;3.50;;
22129;SDS011;11231;50.746;4.272;2023-07-13T04:01:17;15.83;;;3.67;;
22129;SDS011;11231;50.746;4.272;2023-07-13T04:03:45;16.20;;;3.70;;
22129;SDS011;11231;50.746;4.272;2023-07-13T04:06:17;14.57;;;3.30;;
22129;SDS011;11231;50.746;4.272;2023-07-13T04:08:50;17.30;;;3.43;;
22129;SDS011;11231;50.746;4.272;2023-07-13T04:11:18;17.50;;;3.63;;
22129;SDS011;11231;50.746;4.272;2023-07-13T04:13:45;16.10;;;3.63;;
22129;SDS011;11231;50.746;4.272;2023-07-13T04:16:12;15.50;;;3.10;;
22129;SDS011;11231;50.746;4.272;2023-07-13T04:18:38;18.37;;;3.40;;
22129;SDS011;11231;50.746;4.272;2023-07-13T04:21:04;17.17;;;3.10;;
22129;SDS011;11231;50.746;4.272;2023-07-13T04:23:30;15.23;;;3.63;;
22129;SDS011;11231;50.746;4.272;2023-07-13T04:25:55;16.63;;;3.20;;
22129;SDS011;11231;50.746;4.272;2023-07-13T04:28:22;14.20;;;3.10;;
22129;SDS011;11231;50.746;4.272;2023-07-13T04:30:49;15.33;;;3.07;;
22129;SDS011;11231;50.746;4.272;2023-07-13T04:33:15;17.60;;;2.93;;
22129;SDS011;11231;50.746;4.272;2023-07-13T04:35:47;17.77;;;3.47;;
22129;SDS011;11231;50.746;4.272;2023-07-13T04:38:24;12.23;;;2.87;;
22129;SDS011;11231;50.746;4.272;2023-07-13T04:40:54;18.07;;;3.43;;
22129;SDS011;11231;50.746;4.272;2023-07-13T04:43:21;15.63;;;3.13;;
22129;SDS011;11231;50.746;4.272;2023-07-13T04:45:47;17.17;;;3.43;;
22129;SDS011;11231;50.746;4.272;2023-07-13T04:48:13;14.87;;;4.07;;
22129;SDS011;11231;50.746;4.272;2023-07-13T04:50:38;18.20;;;3.20;;
22129;SDS011;11231;50.746;4.272;2023-07-13T04:53:04;17.30;;;3.10;;
22129;SDS011;11231;50.746;4.272;2023-07-13T04:55:31;11.97;;;2.90;;
22129;SDS011;11231;50.746;4.272;2023-07-13T04:57:57;14.57;;;3.17;;
22129;SDS011;11231;50.746;4.272;2023-07-13T05:00:26;17.07;;;3.27;;
22129;SDS011;11231;50.746;4.272;2023-07-13T05:02:53;18.33;;;3.17;;
22129;SDS011;11231;50.746;4.272;2023-07-13T05:05:23;14.30;;;3.40;;
22129;SDS011;11231;50.746;4.272;2023-07-13T05:07:49;18.37;;;3.70;;
22129;SDS011;11231;50.746;4.272;2023-07-13T05:10:15;13.40;;;2.60;;
22129;SDS011;11231;50.746;4.272;2023-07-13T05:12:41;15.00;;;2.93;;
22129;SDS011;11231;50.746;4.272;2023-07-13T05:15:07;17.00;;;3.07;;
22129;SDS011;11231;50.746;4.272;2023-07-13T05:17:33;16.73;;;3.30;;
22129;SDS011;11231;50.746;4.272;2023-07-13T05:19:58;18.97;;;2.80;;
22129;SDS011;11231;50.746;4.272;2023-07-13T05:22:24;19.07;;;3.03;;
22129;SDS011;11231;50.746;4.272;2023-07-13T05:24:50;14.07;;;2.70;;
22129;SDS011;11231;50.746;4.272;2023-07-13T05:27:16;16.10;;;2.93;;
22129;SDS011;11231;50.746;4.272;2023-07-13T05:29:41;15.13;;;3.00;;
22129;SDS011;11231;50.746;4.272;2023-07-13T05:32:07;17.40;;;3.03;;
22129;SDS011;11231;50.746;4.272;2023-07-13T05:34:33;17.63;;;3.00;;
22129;SDS011;11231;50.746;4.272;2023-07-13T05:36:58;13.43;;;2.87;;
22129;SDS011;11231;50.746;4.272;2023-07-13T05:39:24;14.83;;;2.70;;
22129;SDS011;11231;50.746;4.272;2023-07-13T05:41:51;15.40;;;2.77;;
22129;SDS011;11231;50.746;4.272;2023-07-13T05:44:17;14.37;;;3.03;;
22129;SDS011;11231;50.746;4.272;2023-07-13T05:46:43;10.93;;;2.70;;
22129;SDS011;11231;50.746;4.272;2023-07-13T05:49:10;17.00;;;2.97;;
22129;SDS011;11231;50.746;4.272;2023-07-13T05:51:36;16.87;;;2.90;;
22129;SDS011;11231;50.746;4.272;2023-07-13T05:54:02;15.20;;;3.13;;
22129;SDS011;11231;50.746;4.272;2023-07-13T05:56:28;15.20;;;2.73;;
22129;SDS011;11231;50.746;4.272;2023-07-13T05:58:54;18.33;;;3.47;;
22129;SDS011;11231;50.746;4.272;2023-07-13T06:01:20;15.33;;;2.93;;
22129;SDS011;11231;50.746;4.272;2023-07-13T06:03:47;17.17;;;3.13;;
22129;SDS011;11231;50.746;4.272;2023-07-13T06:06:13;16.33;;;3.00;;
22129;SDS011;11231;50.746;4.272;2023-07-13T06:08:40;12.20;;;2.77;;
22129;SDS011;11231;50.746;4.272;2023-07-13T06:11:07;15.23;;;3.10;;
22129;SDS011;11231;50.746;4.272;2023-07-13T06:13:35;15.07;;;3.03;;
22129;SDS011;11231;50.746;4.272;2023-07-13T06:16:01;18.63;;;3.60;;
22129;SDS011;11231;50.746;4.272;2023-07-13T06:18:29;16.13;;;3.33;;
22129;SDS011;11231;50.746;4.272;2023-07-13T06:20:56;17.33;;;3.10;;
22129;SDS011;11231;50.746;4.272;2023-07-13T06:23:22;13.23;;;2.67;;
22129;SDS011;11231;50.746;4.272;2023-07-13T06:25:48;13.73;;;2.90;;
22129;SDS011;11231;50.746;4.272;2023-07-13T06:28:14;18.97;;;3.37;;
22129;SDS011;11231;50.746;4.272;2023-07-13T06:30:39;14.83;;;2.90;;
22129;SDS011;11231;50.746;4.272;2023-07-13T06:33:05;18.77;;;2.97;;
22129;SDS011;11231;50.746;4.272;2023-07-13T06:35:31;17.83;;;3.13;;
22129;SDS011;11231;50.746;4.272;2023-07-13T06:37:57;10.97;;;3.07;;
22129;SDS011;11231;50.746;4.272;2023-07-13T06:40:22;13.30;;;2.83;;
22129;SDS011;11231;50.746;4.272;2023-07-13T06:42:48;14.27;;;3.23;;
22129;SDS011;11231;50.746;4.272;2023-07-13T06:45:14;14.17;;;2.80;;
22129;SDS011;11231;50.746;4.272;2023-07-13T06:47:39;13.23;;;2.90;;
22129;SDS011;11231;50.746;4.272;2023-07-13T06:50:05;13.23;;;2.60;;
22129;SDS011;11231;50.746;4.272;2023-07-13T06:52:31;16.07;;;3.20;;
22129;SDS011;11231;50.746;4.272;2023-07-13T06:54:57;17.93;;;2.80;;
22129;SDS011;11231;50.746;4.272;2023-07-13T06:57:22;17.03;;;2.83;;
22129;SDS011;11231;50.746;4.272;2023-07-13T06:59:48;14.40;;;3.00;;
22129;SDS011;11231;50.746;4.272;2023-07-13T07:02:14;14.13;;;2.80;;
22129;SDS011;11231;50.746;4.272;2023-07-13T07:04:39;18.07;;;3.13;;
22129;SDS011;11231;50.746;4.272;2023-07-13T07:07:05;13.53;;;2.80;;
22129;SDS011;11231;50.746;4.272;2023-07-13T07:09:31;15.27;;;3.13;;
22129;SDS011;11231;50.746;4.272;2023-07-13T07:11:57;15.07;;;3.10;;
22129;SDS011;11231;50.746;4.272;2023-07-13T07:14:22;13.67;;;2.30;;
22129;SDS011;11231;50.746;4.272;2023-07-13T07:16:49;17.30;;;3.17;;
22129;SDS011;11231;50.746;4.272;2023-07-13T07:19:15;10.47;;;2.97;;
22129;SDS011;11231;50.746;4.272;2023-07-13T07:21:41;14.00;;;2.93;;
22129;SDS011;11231;50.746;4.272;2023-07-13T07:24:06;11.43;;;2.80;;
22129;SDS011;11231;50.746;4.272;2023-07-13T07:26:32;10.60;;;2.77;;
22129;SDS011;11231;50.746;4.272;2023-07-13T07:28:58;14.50;;;2.63;;
22129;SDS011;11231;50.746;4.272;2023-07-13T07:31:24;15.60;;;2.73;;
22129;SDS011;11231;50.746;4.272;2023-07-13T07:33:50;15.60;;;3.00;;
22129;SDS011;11231;50.746;4.272;2023-07-13T07:36:16;14.30;;;2.57;;
22129;SDS011;11231;50.746;4.272;2023-07-13T07:38:42;10.77;;;2.43;;
22129;SDS011;11231;50.746;4.272;2023-07-13T07:41:08;12.77;;;2.70;;
22129;SDS011;11231;50.746;4.272;2023-07-13T07:43:35;11.67;;;2.63;;
22129;SDS011;11231;50.746;4.272;2023-07-13T07:46:01;11.43;;;2.07;;
22129;SDS011;11231;50.746;4.272;2023-07-13T07:48:27;12.87;;;2.70;;
22129;SDS011;11231;50.746;4.272;2023-07-13T07:50:52;14.70;;;2.60;;
22129;SDS011;11231;50.746;4.272;2023-07-13T07:53:18;12.30;;;2.83;;
22129;SDS011;11231;50.746;4.272;2023-07-13T07:55:44;14.82;;;2.53;;
22129;SDS011;11231;50.746;4.272;2023-07-13T07:58:10;12.25;;;2.60;;
22129;SDS011;11231;50.746;4.272;2023-07-13T08:00:36;12.73;;;2.35;;
22129;SDS011;11231;50.746;4.272;2023-07-13T08:03:02;11.23;;;2.30;;
22129;SDS011;11231;50.746;4.272;2023-07-13T08:05:28;9.88;;;2.17;;
22129;SDS011;11231;50.746;4.272;2023-07-13T08:07:53;13.35;;;2.10;;
22129;SDS011;11231;50.746;4.272;2023-07-13T08:10:19;15.32;;;2.63;;
22129;SDS011;11231;50.746;4.272;2023-07-13T08:12:45;13.73;;;2.53;;
22129;SDS011;11231;50.746;4.272;2023-07-13T08:15:12;10.32;;;2.28;;
22129;SDS011;11231;50.746;4.272;2023-07-13T08:17:40;15.10;;;2.47;;
22129;SDS011;11231;50.746;4.272;2023-07-13T08:20:06;12.85;;;2.45;;
22129;SDS011;11231;50.746;4.272;2023-07-13T08:22:34;12.85;;;2.35;;
22129;SDS011;11231;50.746;4.272;2023-07-13T08:25:00;12.15;;;2.40;;
22129;SDS011;11231;50.746;4.272;2023-07-13T08:27:26;9.93;;;2.30;;
22129;SDS011;11231;50.746;4.272;2023-07-13T08:29:53;13.40;;;2.83;;
22129;SDS011;11231;50.746;4.272;2023-07-13T08:32:20;16.33;;;2.67;;
22129;SDS011;11231;50.746;4.272;2023-07-13T08:34:46;14.57;;;2.90;;
22129;SDS011;11231;50.746;4.272;2023-07-13T08:37:13;11.20;;;2.25;;
22129;SDS011;11231;50.746;4.272;2023-07-13T08:39:38;13.50;;;2.45;;
22129;SDS011;11231;50.746;4.272;2023-07-13T08:42:12;13.27;;;2.22;;
22129;SDS011;11231;50.746;4.272;2023-07-13T08:44:47;9.68;;;2.10;;
22129;SDS011;11231;50.746;4.272;2023-07-13T08:47:17;14.48;;;2.60;;
22129;SDS011;11231;50.746;4.272;2023-07-13T08:49:47;10.23;;;2.00;;
22129;SDS011;11231;50.746;4.272;2023-07-13T08:52:28;12.68;;;2.25;;
22129;SDS011;11231;50.746;4.272;2023-07-13T08:54:58;11.85;;;2.20;;
22129;SDS011;11231;50.746;4.272;2023-07-13T08:57:32;11.02;;;2.55;;
22129;SDS011;11231;50.746;4.272;2023-07-13T08:59:59;12.98;;;2.47;;
22129;SDS011;11231;50.746;4.272;2023-07-13T09:02:26;9.23;;;2.00;;
22129;SDS011;11231;50.746;4.272;2023-07-13T09:05:02;10.32;;;2.50;;
22129;SDS011;11231;50.746;4.272;2023-07-13T09:07:45;11.00;;;2.28;;
22129;SDS011;11231;50.746;4.272;2023-07-13T09:15:42;11.10;;;2.17;;
22129;SDS011;11231;50.746;4.272;2023-07-13T09:23:39;7.60;;;1.70;;
22129;SDS011;11231;50.746;4.272;2023-07-13T09:26:24;8.70;;;2.00;;
22129;SDS011;11231;50.746;4.272;2023-07-13T09:28:54;10.52;;;2.10;;
22129;SDS011;11231;50.746;4.272;2023-07-13T09:31:26;9.88;;;2.15;;
22129;SDS011;11231;50.746;4.272;2023-07-13T09:33:59;7.97;;;1.77;;
22129;SDS011;11231;50.746;4.272;2023-07-13T09:36:31;9.50;;;2.15;;
22129;SDS011;11231;50.746;4.272;2023-07-13T09:39:11;10.13;;;2.40;;
22129;SDS011;11231;50.746;4.272;2023-07-13T09:44:17;10.82;;;1.90;;
22129;SDS011;11231;50.746;4.272;2023-07-13T09:46:54;8.57;;;2.25;;
22129;SDS011;11231;50.746;4.272;2023-07-13T09:49:27;7.90;;;1.90;;
22129;SDS011;11231;50.746;4.272;2023-07-13T09:51:59;9.15;;;2.03;;
22129;SDS011;11231;50.746;4.272;2023-07-13T09:54:26;8.77;;;1.98;;
22129;SDS011;11231;50.746;4.272;2023-07-13T09:56:55;7.95;;;1.88;;
22129;SDS011;11231;50.746;4.272;2023-07-13T09:59:22;7.90;;;1.58;;
22129;SDS011;11231;50.746;4.272;2023-07-13T10:01:49;8.35;;;1.90;;
22129;SDS011;11231;50.746;4.272;2023-07-13T10:04:18;8.30;;;1.90;;
22129;SDS011;11231;50.746;4.272;2023-07-13T10:06:45;6.53;;;1.85;;
22129;SDS011;11231;50.746;4.272;2023-07-13T10:09:15;9.88;;;2.10;;
22129;SDS011;11231;50.746;4.272;2023-07-13T10:11:42;9.00;;;1.83;;
22129;SDS011;11231;50.746;4.272;2023-07-13T10:16:40;6.72;;;1.65;;
22129;SDS011;11231;50.746;4.272;2023-07-13T10:19:19;9.40;;;2.20;;
22129;SDS011;11231;50.746;4.272;2023-07-13T10:21:55;9.65;;;2.08;;
22129;SDS011;11231;50.746;4.272;2023-07-13T10:24:29;7.32;;;1.88;;
22129;SDS011;11231;50.746;4.272;2023-07-13T10:27:02;9.75;;;2.53;;
22129;SDS011;11231;50.746;4.272;2023-07-13T10:29:53;6.70;;;1.90;;
22129;SDS011;11231;50.746;4.272;2023-07-13T10:32:26;7.80;;;2.00;;
22129;SDS011;11231;50.746;4.272;2023-07-13T10:34:52;8.25;;;1.65;;
22129;SDS011;11231;50.746;4.272;2023-07-13T10:37:22;8.48;;;1.83;;
22129;SDS011;11231;50.746;4.272;2023-07-13T10:39:53;9.25;;;1.73;;
22129;SDS011;11231;50.746;4.272;2023-07-13T10:42:25;6.10;;;1.75;;
22129;SDS011;11231;50.746;4.272;2023-07-13T10:44:54;6.53;;;1.73;;
22129;SDS011;11231;50.746;4.272;2023-07-13T10:47:19;9.10;;;1.90;;
22129;SDS011;11231;50.746;4.272;2023-07-13T10:49:45;7.03;;;1.83;;
22129;SDS011;11231;50.746;4.272;2023-07-13T10:52:40;12.30;;;1.85;;
22129;SDS011;11231;50.746;4.272;2023-07-13T10:58:03;7.68;;;1.60;;
22129;SDS011;11231;50.746;4.272;2023-07-13T11:01:09;9.80;;;2.50;;
22129;SDS011;11231;50.746;4.272;2023-07-13T11:03:54;6.35;;;1.88;;
22129;SDS011;11231;50.746;4.272;2023-07-13T11:08:57;9.18;;;1.77;;
22129;SDS011;11231;50.746;4.272;2023-07-13T11:18:47;9.18;;;1.83;;
22129;SDS011;11231;50.746;4.272;2023-07-13T11:21:21;10.05;;;1.80;;
22129;SDS011;11231;50.746;4.272;2023-07-13T11:23:52;4.53;;;1.45;;
22129;SDS011;11231;50.746;4.272;2023-07-13T11:26:39;9.63;;;1.60;;
22129;SDS011;11231;50.746;4.272;2023-07-13T11:29:25;7.03;;;1.35;;
22129;SDS011;11231;50.746;4.272;2023-07-13T11:32:21;6.47;;;1.35;;
22129;SDS011;11231;50.746;4.272;2023-07-13T11:34:51;7.88;;;1.95;;
22129;SDS011;11231;50.746;4.272;2023-07-13T11:37:19;5.47;;;1.60;;
22129;SDS011;11231;50.746;4.272;2023-07-13T11:39:46;4.97;;;1.67;;
22129;SDS011;11231;50.746;4.272;2023-07-13T11:42:16;6.45;;;1.75;;
22129;SDS011;11231;50.746;4.272;2023-07-13T11:44:46;6.22;;;1.65;;
22129;SDS011;11231;50.746;4.272;2023-07-13T11:47:22;7.25;;;1.50;;
22129;SDS011;11231;50.746;4.272;2023-07-13T11:49:54;6.93;;;1.70;;
22129;SDS011;11231;50.746;4.272;2023-07-13T11:52:31;5.15;;;1.60;;
22129;SDS011;11231;50.746;4.272;2023-07-13T11:55:03;5.40;;;1.45;;
22129;SDS011;11231;50.746;4.272;2023-07-13T11:57:41;7.20;;;1.67;;
22129;SDS011;11231;50.746;4.272;2023-07-13T12:00:15;6.97;;;1.70;;
22129;SDS011;11231;50.746;4.272;2023-07-13T12:02:47;7.70;;;1.50;;
22129;SDS011;11231;50.746;4.272;2023-07-13T12:05:18;9.20;;;1.60;;
22129;SDS011;11231;50.746;4.272;2023-07-13T12:07:45;6.05;;;1.40;;
22129;SDS011;11231;50.746;4.272;2023-07-13T12:10:19;5.80;;;1.20;;
22129;SDS011;11231;50.746;4.272;2023-07-13T12:12:58;6.20;;;1.27;;
22129;SDS011;11231;50.746;4.272;2023-07-13T12:18:15;4.85;;;1.35;;
22129;SDS011;11231;50.746;4.272;2023-07-13T12:20:44;3.97;;;1.15;;
22129;SDS011;11231;50.746;4.272;2023-07-13T12:23:15;5.32;;;1.15;;
22129;SDS011;11231;50.746;4.272;2023-07-13T12:25:46;4.43;;;1.30;;
22129;SDS011;11231;50.746;4.272;2023-07-13T12:28:21;4.40;;;1.13;;
22129;SDS011;11231;50.746;4.272;2023-07-13T12:30:48;6.10;;;1.25;;
22129;SDS011;11231;50.746;4.272;2023-07-13T12:33:15;8.50;;;1.30;;
22129;SDS011;11231;50.746;4.272;2023-07-13T12:35:46;7.15;;;1.08;;
22129;SDS011;11231;50.746;4.272;2023-07-13T12:38:14;6.18;;;1.50;;
22129;SDS011;11231;50.746;4.272;2023-07-13T12:40:41;5.18;;;1.50;;
22129;SDS011;11231;50.746;4.272;2023-07-13T12:43:11;7.85;;;1.73;;
22129;SDS011;11231;50.746;4.272;2023-07-13T12:45:37;10.70;;;2.00;;
22129;SDS011;11231;50.746;4.272;2023-07-13T12:48:04;8.17;;;1.90;;
22129;SDS011;11231;50.746;4.272;2023-07-13T12:50:40;5.00;;;1.40;;
22129;SDS011;11231;50.746;4.272;2023-07-13T12:53:14;5.10;;;1.40;;
22129;SDS011;11231;50.746;4.272;2023-07-13T12:55:42;6.00;;;1.60;;
22129;SDS011;11231;50.746;4.272;2023-07-13T12:58:17;4.60;;;1.30;;
22129;SDS011;11231;50.746;4.272;2023-07-13T13:01:12;5.70;;;1.45;;
22129;SDS011;11231;50.746;4.272;2023-07-13T13:03:39;7.18;;;1.50;;
22129;SDS011;11231;50.746;4.272;2023-07-13T13:08:46;8.63;;;1.40;;
22129;SDS011;11231;50.746;4.272;2023-07-13T13:11:17;4.38;;;1.40;;
22129;SDS011;11231;50.746;4.272;2023-07-13T13:13:44;5.28;;;1.60;;
22129;SDS011;11231;50.746;4.272;2023-07-13T13:16:12;5.78;;;1.27;;
22129;SDS011;11231;50.746;4.272;2023-07-13T13:18:45;7.25;;;1.58;;
22129;SDS011;11231;50.746;4.272;2023-07-13T13:21:11;6.32;;;1.48;;
22129;SDS011;11231;50.746;4.272;2023-07-13T13:23:37;4.10;;;1.20;;
22129;SDS011;11231;50.746;4.272;2023-07-13T13:26:05;5.18;;;1.55;;
22129;SDS011;11231;50.746;4.272;2023-07-13T13:28:38;3.53;;;1.27;;
22129;SDS011;11231;50.746;4.272;2023-07-13T13:31:04;5.47;;;1.50;;
22129;SDS011;11231;50.746;4.272;2023-07-13T13:33:29;6.07;;;1.50;;
22129;SDS011;11231;50.746;4.272;2023-07-13T13:35:55;5.00;;;1.20;;
22129;SDS011;11231;50.746;4.272;2023-07-13T13:38:23;7.07;;;1.33;;
22129;SDS011;11231;50.746;4.272;2023-07-13T13:40:52;6.97;;;1.55;;
22129;SDS011;11231;50.746;4.272;2023-07-13T13:43:22;6.18;;;1.45;;
22129;SDS011;11231;50.746;4.272;2023-07-13T13:45:56;4.97;;;1.27;;
22129;SDS011;11231;50.746;4.272;2023-07-13T13:48:31;5.00;;;1.13;;
22129;SDS011;11231;50.746;4.272;2023-07-13T13:50:59;5.90;;;1.30;;
22129;SDS011;11231;50.746;4.272;2023-07-13T13:53:26;7.72;;;1.20;;
22129;SDS011;11231;50.746;4.272;2023-07-13T13:55:52;4.60;;;1.15;;
22129;SDS011;11231;50.746;4.272;2023-07-13T13:58:18;5.32;;;1.45;;
22129;SDS011;11231;50.746;4.272;2023-07-13T14:00:45;3.67;;;1.20;;
22129;SDS011;11231;50.746;4.272;2023-07-13T14:03:15;5.82;;;1.30;;
22129;SDS011;11231;50.746;4.272;2023-07-13T14:05:43;4.30;;;1.30;;
22129;SDS011;11231;50.746;4.272;2023-07-13T14:08:16;8.02;;;1.30;;
22129;SDS011;11231;50.746;4.272;2023-07-13T14:10:48;6.63;;;1.17;;
22129;SDS011;11231;50.746;4.272;2023-07-13T14:13:17;5.65;;;1.42;;
22129;SDS011;11231;50.746;4.272;2023-07-13T14:15:46;4.93;;;1.38;;
22129;SDS011;11231;50.746;4.272;2023-07-13T14:18:13;7.00;;;1.67;;
22129;SDS011;11231;50.746;4.272;2023-07-13T14:20:46;7.43;;;1.90;;
22129;SDS011;11231;50.746;4.272;2023-07-13T14:23:16;7.30;;;1.50;;
22129;SDS011;11231;50.746;4.272;2023-07-13T14:25:44;8.38;;;2.10;;
22129;SDS011;11231;50.746;4.272;2023-07-13T14:30:44;8.70;;;2.30;;
22129;SDS011;11231;50.746;4.272;2023-07-13T14:33:11;3.50;;;1.63;;
22129;SDS011;11231;50.746;4.272;2023-07-13T14:35:36;8.27;;;2.20;;
22129;SDS011;11231;50.746;4.272;2023-07-13T14:38:03;8.93;;;1.90;;
22129;SDS011;11231;50.746;4.272;2023-07-13T14:40:30;6.40;;;1.95;;
22129;SDS011;11231;50.746;4.272;2023-07-13T14:42:58;11.00;;;2.35;;
22129;SDS011;11231;50.746;4.272;2023-07-13T14:45:24;5.97;;;1.95;;
22129;SDS011;11231;50.746;4.272;2023-07-13T14:47:50;4.47;;;1.60;;
22129;SDS011;11231;50.746;4.272;2023-07-13T14:50:17;6.35;;;1.92;;
22129;SDS011;11231;50.746;4.272;2023-07-13T14:52:46;6.72;;;1.88;;
22129;SDS011;11231;50.746;4.272;2023-07-13T14:55:13;9.20;;;2.30;;
22129;SDS011;11231;50.746;4.272;2023-07-13T14:57:40;5.97;;;2.10;;
22129;SDS011;11231;50.746;4.272;2023-07-13T15:00:12;11.27;;;2.20;;
22129;SDS011;11231;50.746;4.272;2023-07-13T15:02:47;6.55;;;1.90;;
22129;SDS011;11231;50.746;4.272;2023-07-13T15:05:16;6.47;;;2.20;;
22129;SDS011;11231;50.746;4.272;2023-07-13T15:07:45;5.53;;;2.17;;
22129;SDS011;11231;50.746;4.272;2023-07-13T15:10:21;6.47;;;2.00;;
22129;SDS011;11231;50.746;4.272;2023-07-13T15:12:51;4.83;;;1.70;;
22129;SDS011;11231;50.746;4.272;2023-07-13T15:15:18;6.07;;;1.90;;
22129;SDS011;11231;50.746;4.272;2023-07-13T15:17:45;7.05;;;2.10;;
22129;SDS011;11231;50.746;4.272;2023-07-13T15:20:21;6.43;;;1.92;;
22129;SDS011;11231;50.746;4.272;2023-07-13T15:22:51;4.53;;;1.60;;
22129;SDS011;11231;50.746;4.272;2023-07-13T15:25:18;8.50;;;2.13;;
22129;SDS011;11231;50.746;4.272;2023-07-13T15:27:52;7.80;;;2.00;;